createdAt,value
2019-02-05T00:00:12.181Z,1021.92
2019-02-05T00:01:12.248Z,1021.90
2019-02-05T00:02:12.162Z,1021.92
2019-02-05T00:03:12.173Z,1021.93
2019-02-05T00:04:12.140Z,1021.93
2019-02-05T00:05:12.125Z,1021.96
2019-02-05T00:06:12.129Z,1022.01
2019-02-05T00:07:12.106Z,1022.02
2019-02-05T00:08:12.112Z,1021.99
2019-02-05T00:09:12.098Z,1021.95
2019-02-05T00:10:12.073Z,1021.98
2019-02-05T00:11:12.070Z,1021.92
2019-02-05T00:12:12.063Z,1021.91
2019-02-05T00:13:12.062Z,1021.93
2019-02-05T00:14:12.025Z,1021.94
2019-02-05T00:15:12.012Z,1021.96
2019-02-05T00:16:12.010Z,1021.99
2019-02-05T00:17:11.994Z,1021.97
2019-02-05T00:18:12.004Z,1021.99
2019-02-05T00:19:11.969Z,1021.94
2019-02-05T00:20:11.963Z,1022.02
2019-02-05T00:21:11.946Z,1021.96
2019-02-05T00:22:11.937Z,1021.98
2019-02-05T00:23:11.942Z,1021.96
2019-02-05T00:24:11.927Z,1021.96
2019-02-05T00:25:11.907Z,1021.94
2019-02-05T00:26:11.893Z,1021.94
2019-02-05T00:27:11.888Z,1021.90
2019-02-05T00:28:11.895Z,1021.91
2019-02-05T00:29:11.869Z,1021.86
2019-02-05T00:30:11.869Z,1021.89
2019-02-05T00:31:11.839Z,1021.88
2019-02-05T00:32:11.824Z,1021.86
2019-02-05T00:33:11.982Z,1021.88
2019-02-05T00:34:11.808Z,1021.92
2019-02-05T00:35:11.833Z,1021.92
2019-02-05T00:36:11.798Z,1021.83
2019-02-05T00:37:11.774Z,1021.87
2019-02-05T00:38:11.758Z,1021.83
2019-02-05T00:39:11.764Z,1021.82
2019-02-05T00:40:11.740Z,1021.82
2019-02-05T00:41:11.733Z,1021.81
2019-02-05T00:42:11.715Z,1021.80
2019-02-05T00:43:11.708Z,1021.82
2019-02-05T00:44:11.713Z,1021.85
2019-02-05T00:45:11.695Z,1021.82
2019-02-05T00:46:11.673Z,1021.81
2019-02-05T00:47:11.669Z,1021.82
2019-02-05T00:48:11.654Z,1021.77
2019-02-05T00:49:11.683Z,1021.75
2019-02-05T00:50:11.626Z,1021.80
2019-02-05T00:51:11.646Z,1021.80
2019-02-05T00:52:11.612Z,1021.74
2019-02-05T00:53:11.599Z,1021.73
2019-02-05T00:54:11.614Z,1021.77
2019-02-05T00:55:11.572Z,1021.77
2019-02-05T00:56:17.610Z,1021.77
2019-02-05T00:57:12.570Z,1021.79
2019-02-05T00:58:11.546Z,1021.74
2019-02-05T00:59:11.555Z,1021.75
2019-02-05T01:00:11.521Z,1021.71
2019-02-05T01:01:11.514Z,1021.70
2019-02-05T01:02:11.493Z,1021.72
2019-02-05T01:03:11.482Z,1021.67
2019-02-05T01:04:11.487Z,1021.68
2019-02-05T01:05:11.466Z,1021.64
2019-02-05T01:06:11.538Z,1021.65
2019-02-05T01:07:11.442Z,1021.65
2019-02-05T01:08:11.443Z,1021.67
2019-02-05T01:09:11.723Z,1021.68
2019-02-05T01:10:11.412Z,1021.66
2019-02-05T01:11:11.401Z,1021.64
2019-02-05T01:12:11.388Z,1021.66
2019-02-05T01:13:11.374Z,1021.64
2019-02-05T01:14:11.866Z,1021.58
2019-02-05T01:15:11.353Z,1021.58
2019-02-05T01:16:11.354Z,1021.62
2019-02-05T01:17:11.365Z,1021.58
2019-02-05T01:18:11.338Z,1021.62
2019-02-05T01:19:11.312Z,1021.57
2019-02-05T01:20:11.297Z,1021.53
2019-02-05T01:21:11.289Z,1021.59
2019-02-05T01:22:11.296Z,1021.54
2019-02-05T01:23:11.260Z,1021.52
2019-02-05T01:24:11.253Z,1021.52
2019-02-05T01:25:11.264Z,1021.46
2019-02-05T01:26:11.230Z,1021.43
2019-02-05T01:27:11.230Z,1021.45
2019-02-05T01:28:11.213Z,1021.42
2019-02-05T01:29:11.203Z,1021.44
2019-02-05T01:30:11.202Z,1021.42
2019-02-05T01:31:11.177Z,1021.36
2019-02-05T01:32:11.167Z,1021.38
2019-02-05T01:33:11.169Z,1021.36
2019-02-05T01:34:11.145Z,1021.38
2019-02-05T01:35:11.145Z,1021.34
2019-02-05T01:36:11.123Z,1021.29
2019-02-05T01:37:11.118Z,1021.35
2019-02-05T01:38:11.279Z,1021.31
2019-02-05T01:39:11.099Z,1021.37
2019-02-05T01:40:11.103Z,1021.36
2019-02-05T01:41:11.064Z,1021.32
2019-02-05T01:42:11.057Z,1021.30
2019-02-05T01:43:11.048Z,1021.27
2019-02-05T01:44:11.038Z,1021.20
2019-02-05T01:45:11.043Z,1021.16
2019-02-05T01:46:11.094Z,1021.16
2019-02-05T01:47:11.005Z,1021.16
2019-02-05T01:48:10.988Z,1021.13
2019-02-05T01:49:10.978Z,1021.15
2019-02-05T01:50:11.022Z,1021.14
2019-02-05T01:51:10.950Z,1021.16
2019-02-05T01:52:10.946Z,1021.10
2019-02-05T01:53:11.024Z,1021.14
2019-02-05T01:54:10.922Z,1021.14
2019-02-05T01:55:10.926Z,1021.09
2019-02-05T01:56:10.907Z,1021.08
2019-02-05T01:57:10.911Z,1021.05
2019-02-05T01:58:10.877Z,1021.07
2019-02-05T01:59:10.866Z,1021.05
2019-02-05T02:00:10.877Z,1021.02
2019-02-05T02:01:10.846Z,1021.02
2019-02-05T02:02:10.876Z,1020.97
2019-02-05T02:03:10.822Z,1020.99
2019-02-05T02:04:10.810Z,1020.97
2019-02-05T02:05:10.834Z,1020.95
2019-02-05T02:06:10.799Z,1020.95
2019-02-05T02:07:10.777Z,1020.91
2019-02-05T02:08:10.775Z,1020.93
2019-02-05T02:09:10.758Z,1020.89
2019-02-05T02:10:10.744Z,1020.88
2019-02-05T02:11:10.756Z,1020.86
2019-02-05T02:12:10.726Z,1020.84
2019-02-05T02:13:10.712Z,1020.83
2019-02-05T02:14:10.705Z,1020.84
2019-02-05T02:15:10.691Z,1020.77
2019-02-05T02:16:10.696Z,1020.82
2019-02-05T02:17:10.671Z,1020.84
2019-02-05T02:18:10.655Z,1020.82
2019-02-05T02:19:10.642Z,1020.80
2019-02-05T02:20:10.642Z,1020.79
2019-02-05T02:21:10.638Z,1020.76
2019-02-05T02:22:10.610Z,1020.82
2019-02-05T02:23:10.610Z,1020.79
2019-02-05T02:24:10.598Z,1020.81
2019-02-05T02:25:10.581Z,1020.84
2019-02-05T02:26:10.586Z,1020.77
2019-02-05T02:27:10.602Z,1020.79
2019-02-05T02:28:10.628Z,1020.78
2019-02-05T02:29:10.534Z,1020.74
2019-02-05T02:30:10.520Z,1020.82
2019-02-05T02:31:10.526Z,1020.83
2019-02-05T02:32:10.504Z,1020.76
2019-02-05T02:33:10.486Z,1020.81
2019-02-05T02:34:10.474Z,1020.78
2019-02-05T02:35:10.472Z,1020.73
2019-02-05T02:36:10.478Z,1020.69
2019-02-05T02:37:10.454Z,1020.74
2019-02-05T02:38:10.434Z,1020.76
2019-02-05T02:39:10.424Z,1020.72
2019-02-05T02:40:10.408Z,1020.74
2019-02-05T02:41:10.424Z,1020.76
2019-02-05T02:42:10.396Z,1020.74
2019-02-05T02:43:10.386Z,1020.76
2019-02-05T02:44:10.366Z,1020.75
2019-02-05T02:45:10.355Z,1020.76
2019-02-05T02:46:10.424Z,1020.75
2019-02-05T02:47:10.332Z,1020.76
2019-02-05T02:48:10.325Z,1020.76
2019-02-05T02:49:10.317Z,1020.78
2019-02-05T02:50:10.300Z,1020.80
2019-02-05T02:51:10.312Z,1020.78
2019-02-05T02:52:10.279Z,1020.78
2019-02-05T02:53:10.285Z,1020.84
2019-02-05T02:54:10.270Z,1020.82
2019-02-05T02:55:10.251Z,1020.79
2019-02-05T02:56:10.274Z,1020.78
2019-02-05T02:57:10.220Z,1020.80
2019-02-05T02:58:13.476Z,1020.82
2019-02-05T02:59:10.208Z,1020.75
2019-02-05T03:00:10.202Z,1020.76
2019-02-05T03:01:10.204Z,1020.78
2019-02-05T03:02:10.169Z,1020.82
2019-02-05T03:03:10.160Z,1020.85
2019-02-05T03:04:10.148Z,1020.86
2019-02-05T03:05:10.136Z,1020.90
2019-02-05T03:06:10.143Z,1020.91
2019-02-05T03:07:10.118Z,1020.97
2019-02-05T03:08:10.105Z,1020.96
2019-02-05T03:09:10.095Z,1020.95
2019-02-05T03:10:10.081Z,1020.99
2019-02-05T03:11:10.084Z,1020.99
2019-02-05T03:12:10.060Z,1021.02
2019-02-05T03:13:10.053Z,1021.03
2019-02-05T03:14:10.043Z,1021.10
2019-02-05T03:15:10.031Z,1021.02
2019-02-05T03:16:10.029Z,1020.97
2019-02-05T03:17:10.028Z,1020.97
2019-02-05T03:18:09.989Z,1020.95
2019-02-05T03:19:10.004Z,1020.88
2019-02-05T03:20:09.971Z,1020.96
2019-02-05T03:21:09.956Z,1020.92
2019-02-05T03:22:09.965Z,1020.91
2019-02-05T03:23:09.945Z,1020.90
2019-02-05T03:24:09.923Z,1020.86
2019-02-05T03:25:09.918Z,1020.87
2019-02-05T03:26:09.901Z,1020.91
2019-02-05T03:27:17.195Z,1020.87
2019-02-05T03:28:10.889Z,1020.86
2019-02-05T03:29:09.877Z,1020.83
2019-02-05T03:30:09.864Z,1020.83
2019-02-05T03:31:09.875Z,1020.81
2019-02-05T03:32:10.070Z,1020.79
2019-02-05T03:33:09.826Z,1020.85
2019-02-05T03:34:09.820Z,1020.78
2019-02-05T03:35:09.815Z,1020.83
2019-02-05T03:36:10.320Z,1020.82
2019-02-05T03:37:09.801Z,1020.76
2019-02-05T03:38:09.774Z,1020.81
2019-02-05T03:39:09.759Z,1020.80
2019-02-05T03:40:09.754Z,1020.77
2019-02-05T03:41:09.750Z,1020.84
2019-02-05T03:42:09.744Z,1020.91
2019-02-05T03:43:09.712Z,1020.83
2019-02-05T03:44:09.703Z,1020.79
2019-02-05T03:45:09.697Z,1020.84
2019-02-05T03:46:09.686Z,1020.80
2019-02-05T03:47:09.700Z,1020.81
2019-02-05T03:48:09.671Z,1020.81
2019-02-05T03:49:09.654Z,1020.80
2019-02-05T03:50:09.640Z,1020.76
2019-02-05T03:51:09.626Z,1020.79
2019-02-05T03:52:09.651Z,1020.76
2019-02-05T03:53:09.612Z,1020.78
2019-02-05T03:54:09.600Z,1020.78
2019-02-05T03:55:09.574Z,1020.81
2019-02-05T03:56:09.580Z,1020.78
2019-02-05T03:57:10.382Z,1020.78
2019-02-05T03:58:09.558Z,1020.75
2019-02-05T03:59:09.536Z,1020.76
2019-02-05T04:00:09.532Z,1020.71
2019-02-05T04:01:09.513Z,1020.73
2019-02-05T04:02:09.523Z,1020.70
2019-02-05T04:03:09.511Z,1020.72
2019-02-05T04:04:09.499Z,1020.72
2019-02-05T04:05:09.489Z,1020.72
2019-02-05T04:06:09.515Z,1020.64
2019-02-05T04:07:09.459Z,1020.72
2019-02-05T04:08:09.454Z,1020.71
2019-02-05T04:09:09.434Z,1020.69
2019-02-05T04:10:09.425Z,1020.74
2019-02-05T04:11:09.421Z,1020.78
2019-02-05T04:12:09.394Z,1020.79
2019-02-05T04:13:09.398Z,1020.78
2019-02-05T04:14:09.368Z,1020.73
2019-02-05T04:15:09.367Z,1020.70
2019-02-05T04:16:09.352Z,1020.78
2019-02-05T04:17:09.340Z,1020.78
2019-02-05T04:18:09.358Z,1020.77
2019-02-05T04:19:09.320Z,1020.70
2019-02-05T04:20:09.314Z,1020.72
2019-02-05T04:21:09.300Z,1020.77
2019-02-05T04:22:09.294Z,1020.81
2019-02-05T04:23:09.286Z,1020.78
2019-02-05T04:24:09.261Z,1020.73
2019-02-05T04:25:09.259Z,1020.73
2019-02-05T04:26:09.246Z,1020.74
2019-02-05T04:27:09.232Z,1020.72
2019-02-05T04:28:09.248Z,1020.68
2019-02-05T04:29:09.202Z,1020.66
2019-02-05T04:30:09.195Z,1020.69
2019-02-05T04:31:09.186Z,1020.75
2019-02-05T04:32:09.179Z,1020.71
2019-02-05T04:33:09.188Z,1020.68
2019-02-05T04:34:09.151Z,1020.71
2019-02-05T04:35:09.137Z,1020.67
2019-02-05T04:36:09.131Z,1020.67
2019-02-05T04:37:09.129Z,1020.66
2019-02-05T04:38:09.120Z,1020.54
2019-02-05T04:39:09.095Z,1020.60
2019-02-05T04:40:09.083Z,1020.57
2019-02-05T04:41:09.075Z,1020.54
2019-02-05T04:42:09.062Z,1020.50
2019-02-05T04:43:09.087Z,1020.52
2019-02-05T04:44:09.053Z,1020.53
2019-02-05T04:45:09.026Z,1020.50
2019-02-05T04:46:09.035Z,1020.46
2019-02-05T04:47:09.002Z,1020.53
2019-02-05T04:48:09.000Z,1020.54
2019-02-05T04:49:09.030Z,1020.58
2019-02-05T04:50:08.980Z,1020.62
2019-02-05T04:51:09.016Z,1020.62
2019-02-05T04:52:08.948Z,1020.64
2019-02-05T04:53:08.945Z,1020.71
2019-02-05T04:54:08.944Z,1020.74
2019-02-05T04:55:08.919Z,1020.77
2019-02-05T04:56:08.920Z,1020.76
2019-02-05T04:57:08.901Z,1020.76
2019-02-05T04:58:08.886Z,1020.76
2019-02-05T04:59:08.892Z,1020.80
2019-02-05T05:00:08.856Z,1020.74
2019-02-05T05:01:08.854Z,1020.76
2019-02-05T05:02:08.871Z,1020.76
2019-02-05T05:03:08.828Z,1020.73
2019-02-05T05:04:08.832Z,1020.71
2019-02-05T05:05:08.806Z,1020.72
2019-02-05T05:06:09.361Z,1020.71
2019-02-05T05:07:08.785Z,1020.69
2019-02-05T05:08:08.777Z,1020.72
2019-02-05T05:09:08.808Z,1020.66
2019-02-05T05:10:08.754Z,1020.62
2019-02-05T05:11:08.745Z,1020.65
2019-02-05T05:12:08.724Z,1020.63
2019-02-05T05:13:08.725Z,1020.70
2019-02-05T05:14:08.741Z,1020.67
2019-02-05T05:15:08.692Z,1020.66
2019-02-05T05:16:08.687Z,1020.68
2019-02-05T05:17:08.688Z,1020.66
2019-02-05T05:18:09.343Z,1020.60
2019-02-05T05:19:08.674Z,1020.63
2019-02-05T05:20:08.697Z,1020.59
2019-02-05T05:21:08.633Z,1020.58
2019-02-05T05:22:08.617Z,1020.61
2019-02-05T05:23:08.624Z,1020.57
2019-02-05T05:24:08.624Z,1020.58
2019-02-05T05:25:08.616Z,1020.57
2019-02-05T05:26:08.599Z,1020.62
2019-02-05T05:27:08.563Z,1020.63
2019-02-05T05:28:10.456Z,1020.65
2019-02-05T05:29:08.723Z,1020.62
2019-02-05T05:30:08.538Z,1020.62
2019-02-05T05:31:08.537Z,1020.58
2019-02-05T05:32:08.509Z,1020.54
2019-02-05T05:33:08.506Z,1020.57
2019-02-05T05:34:08.482Z,1020.53
2019-02-05T05:35:08.509Z,1020.53
2019-02-05T05:36:08.471Z,1020.52
2019-02-05T05:37:08.470Z,1020.49
2019-02-05T05:38:08.444Z,1020.48
2019-02-05T05:39:08.428Z,1020.50
2019-02-05T05:40:08.471Z,1020.54
2019-02-05T05:41:08.404Z,1020.49
2019-02-05T05:42:08.407Z,1020.50
2019-02-05T05:43:08.381Z,1020.45
2019-02-05T05:44:09.570Z,1020.46
2019-02-05T05:45:08.376Z,1020.42
2019-02-05T05:46:08.358Z,1020.36
2019-02-05T05:47:08.340Z,1020.38
2019-02-05T05:48:08.335Z,1020.42
2019-02-05T05:49:08.319Z,1020.43
2019-02-05T05:50:08.350Z,1020.40
2019-02-05T05:51:08.299Z,1020.38
2019-02-05T05:52:08.281Z,1020.37
2019-02-05T05:53:08.278Z,1020.38
2019-02-05T05:54:08.274Z,1020.40
2019-02-05T05:55:08.278Z,1020.37
2019-02-05T05:56:08.250Z,1020.43
2019-02-05T05:57:08.231Z,1020.48
2019-02-05T05:58:08.222Z,1020.52
2019-02-05T05:59:08.213Z,1020.52
2019-02-05T06:00:08.219Z,1020.50
2019-02-05T06:01:08.192Z,1020.44
2019-02-05T06:02:08.177Z,1020.51
2019-02-05T06:03:08.165Z,1020.51
2019-02-05T06:04:08.152Z,1020.48
2019-02-05T06:05:08.185Z,1020.46
2019-02-05T06:06:08.129Z,1020.48
2019-02-05T06:07:08.120Z,1020.47
2019-02-05T06:08:08.111Z,1020.45
2019-02-05T06:09:08.111Z,1020.43
2019-02-05T06:10:08.107Z,1020.48
2019-02-05T06:11:08.083Z,1020.47
2019-02-05T06:12:08.066Z,1020.47
2019-02-05T06:13:08.055Z,1020.45
2019-02-05T06:14:08.048Z,1020.48
2019-02-05T06:15:08.048Z,1020.54
2019-02-05T06:16:08.038Z,1020.55
2019-02-05T06:17:08.024Z,1020.54
2019-02-05T06:18:07.998Z,1020.63
2019-02-05T06:19:07.988Z,1020.63
2019-02-05T06:20:07.990Z,1020.65
2019-02-05T06:21:07.996Z,1020.64
2019-02-05T06:22:07.966Z,1020.68
2019-02-05T06:23:07.948Z,1020.62
2019-02-05T06:24:07.932Z,1020.60
2019-02-05T06:25:07.921Z,1020.59
2019-02-05T06:26:07.932Z,1020.65
2019-02-05T06:27:07.906Z,1020.60
2019-02-05T06:28:07.896Z,1020.62
2019-02-05T06:29:07.905Z,1020.60
2019-02-05T06:30:07.868Z,1020.59
2019-02-05T06:31:07.870Z,1020.58
2019-02-05T06:32:07.853Z,1020.65
2019-02-05T06:33:07.838Z,1020.59
2019-02-05T06:34:07.832Z,1020.55
2019-02-05T06:35:07.809Z,1020.58
2019-02-05T06:36:07.823Z,1020.56
2019-02-05T06:37:07.802Z,1020.57
2019-02-05T06:38:07.814Z,1020.59
2019-02-05T06:39:07.769Z,1020.64
2019-02-05T06:40:07.770Z,1020.59
2019-02-05T06:41:07.888Z,1020.60
2019-02-05T06:42:07.740Z,1020.58
2019-02-05T06:43:07.720Z,1020.56
2019-02-05T06:44:07.706Z,1020.62
2019-02-05T06:45:07.705Z,1020.62
2019-02-05T06:46:07.711Z,1020.60
2019-02-05T06:47:07.672Z,1020.62
2019-02-05T06:48:07.665Z,1020.62
2019-02-05T06:49:07.674Z,1020.67
2019-02-05T06:50:07.645Z,1020.60
2019-02-05T06:51:07.648Z,1020.65
2019-02-05T06:52:07.645Z,1020.63
2019-02-05T06:53:07.611Z,1020.67
2019-02-05T06:54:07.596Z,1020.67
2019-02-05T06:55:07.590Z,1020.67
2019-02-05T06:56:07.579Z,1020.65
2019-02-05T06:57:07.587Z,1020.70
2019-02-05T06:58:07.555Z,1020.73
2019-02-05T06:59:07.544Z,1020.75
2019-02-05T07:00:07.533Z,1020.73
2019-02-05T07:01:07.534Z,1020.69
2019-02-05T07:02:07.537Z,1020.74
2019-02-05T07:03:07.517Z,1020.77
2019-02-05T07:04:07.483Z,1020.78
2019-02-05T07:05:07.475Z,1020.82
2019-02-05T07:06:07.469Z,1020.82
2019-02-05T07:07:07.474Z,1020.85
2019-02-05T07:08:07.450Z,1020.82
2019-02-05T07:09:07.437Z,1020.84
2019-02-05T07:10:07.420Z,1020.87
2019-02-05T07:11:07.426Z,1020.89
2019-02-05T07:12:07.415Z,1020.94
2019-02-05T07:13:07.398Z,1020.92
2019-02-05T07:14:07.384Z,1020.96
2019-02-05T07:15:07.362Z,1020.91
2019-02-05T07:16:07.355Z,1021.04
2019-02-05T07:17:07.363Z,1021.04
2019-02-05T07:18:07.352Z,1020.97
2019-02-05T07:19:07.330Z,1021.03
2019-02-05T07:20:07.330Z,1021.03
2019-02-05T07:21:07.301Z,1021.01
2019-02-05T07:22:07.323Z,1021.03
2019-02-05T07:23:07.282Z,1021.07
2019-02-05T07:24:07.268Z,1021.03
2019-02-05T07:25:07.275Z,1021.04
2019-02-05T07:26:07.244Z,1021.16
2019-02-05T07:27:07.283Z,1021.10
2019-02-05T07:28:07.236Z,1021.15
2019-02-05T07:29:07.346Z,1021.11
2019-02-05T07:30:07.203Z,1021.11
2019-02-05T07:31:07.204Z,1021.11
2019-02-05T07:32:07.185Z,1021.11
2019-02-05T07:33:07.186Z,1021.10
2019-02-05T07:34:07.161Z,1021.09
2019-02-05T07:35:07.146Z,1021.11
2019-02-05T07:36:07.135Z,1021.17
2019-02-05T07:37:07.133Z,1021.18
2019-02-05T07:38:07.209Z,1021.19
2019-02-05T07:39:07.103Z,1021.22
2019-02-05T07:40:07.105Z,1021.19
2019-02-05T07:41:07.077Z,1021.22
2019-02-05T07:42:07.070Z,1021.18
2019-02-05T07:43:07.069Z,1021.16
2019-02-05T07:44:07.081Z,1021.16
2019-02-05T07:45:07.039Z,1021.16
2019-02-05T07:46:07.023Z,1021.20
2019-02-05T07:47:07.011Z,1021.20
2019-02-05T07:48:07.013Z,1021.19
2019-02-05T07:49:06.992Z,1021.18
2019-02-05T07:50:06.976Z,1021.21
2019-02-05T07:51:06.969Z,1021.21
2019-02-05T07:52:06.971Z,1021.19
2019-02-05T07:53:06.969Z,1021.21
2019-02-05T07:54:06.945Z,1021.14
2019-02-05T07:55:06.954Z,1021.25
2019-02-05T07:56:06.916Z,1021.22
2019-02-05T07:57:06.897Z,1021.18
2019-02-05T07:58:06.924Z,1021.18
2019-02-05T07:59:10.423Z,1021.20
2019-02-05T08:00:06.871Z,1021.20
2019-02-05T08:01:06.865Z,1021.19
2019-02-05T08:02:06.844Z,1021.19
2019-02-05T08:03:06.850Z,1021.22
2019-02-05T08:04:06.828Z,1021.29
2019-02-05T08:05:06.836Z,1021.17
2019-02-05T08:06:06.826Z,1021.18
2019-02-05T08:07:07.704Z,1021.24
2019-02-05T08:08:06.809Z,1021.21
2019-02-05T08:09:06.789Z,1021.25
2019-02-05T08:10:06.757Z,1021.33
2019-02-05T08:11:06.758Z,1021.27
2019-02-05T08:12:06.734Z,1021.32
2019-02-05T08:13:06.716Z,1021.37
2019-02-05T08:14:06.726Z,1021.35
2019-02-05T08:15:06.698Z,1021.35
2019-02-05T08:16:06.693Z,1021.36
2019-02-05T08:17:06.682Z,1021.34
2019-02-05T08:18:06.667Z,1021.33
2019-02-05T08:19:06.711Z,1021.35
2019-02-05T08:20:06.641Z,1021.37
2019-02-05T08:21:06.633Z,1021.34
2019-02-05T08:22:06.621Z,1021.36
2019-02-05T08:23:06.611Z,1021.38
2019-02-05T08:24:06.612Z,1021.35
2019-02-05T08:25:06.589Z,1021.33
2019-02-05T08:26:06.577Z,1021.35
2019-02-05T08:27:06.565Z,1021.31
2019-02-05T08:28:06.560Z,1021.36
2019-02-05T08:29:06.561Z,1021.32
2019-02-05T08:30:06.558Z,1021.33
2019-02-05T08:31:06.525Z,1021.29
2019-02-05T08:32:06.514Z,1021.32
2019-02-05T08:33:06.525Z,1021.34
2019-02-05T08:34:06.513Z,1021.40
2019-02-05T08:35:06.484Z,1021.36
2019-02-05T08:36:06.467Z,1021.34
2019-02-05T08:37:06.457Z,1021.33
2019-02-05T08:38:06.454Z,1021.33
2019-02-05T08:39:06.464Z,1021.33
2019-02-05T08:40:06.438Z,1021.39
2019-02-05T08:41:06.413Z,1021.41
2019-02-05T08:42:06.406Z,1021.42
2019-02-05T08:43:06.387Z,1021.47
2019-02-05T08:44:06.388Z,1021.46
2019-02-05T08:45:06.371Z,1021.40
2019-02-05T08:46:06.355Z,1021.36
2019-02-05T08:47:06.343Z,1021.36
2019-02-05T08:48:06.326Z,1021.37
2019-02-05T08:49:06.335Z,1021.34
2019-02-05T08:50:06.313Z,1021.39
2019-02-05T08:51:06.306Z,1021.38
2019-02-05T08:52:06.292Z,1021.45
2019-02-05T08:53:06.274Z,1021.40
2019-02-05T08:54:06.287Z,1021.44
2019-02-05T08:55:06.281Z,1021.43
2019-02-05T08:56:06.242Z,1021.47
2019-02-05T08:57:06.246Z,1021.51
2019-02-05T08:58:06.225Z,1021.52
2019-02-05T08:59:06.211Z,1021.53
2019-02-05T09:00:06.233Z,1021.49
2019-02-05T09:01:06.193Z,1021.44
2019-02-05T09:02:06.176Z,1021.48
2019-02-05T09:03:06.163Z,1021.51
2019-02-05T09:04:06.152Z,1021.54
2019-02-05T09:05:06.179Z,1021.54
2019-02-05T09:06:06.135Z,1021.59
2019-02-05T09:07:06.138Z,1021.59
2019-02-05T09:08:06.123Z,1021.59
2019-02-05T09:09:06.104Z,1021.63
2019-02-05T09:10:06.114Z,1021.63
2019-02-05T09:11:06.078Z,1021.62
2019-02-05T09:12:06.076Z,1021.56
2019-02-05T09:13:06.056Z,1021.50
2019-02-05T09:14:11.182Z,1021.55
2019-02-05T09:15:07.046Z,1021.58
2019-02-05T09:16:06.024Z,1021.62
2019-02-05T09:17:06.006Z,1021.61
2019-02-05T09:18:06.002Z,1021.65
2019-02-05T09:19:05.986Z,1021.64
2019-02-05T09:20:06.008Z,1021.68
2019-02-05T09:21:05.964Z,1021.63
2019-02-05T09:22:05.959Z,1021.62
2019-02-05T09:23:05.945Z,1021.58
2019-02-05T09:24:05.931Z,1021.59
2019-02-05T09:25:05.941Z,1021.59
2019-02-05T09:26:05.913Z,1021.69
2019-02-05T09:27:05.897Z,1021.67
2019-02-05T09:28:05.889Z,1021.68
2019-02-05T09:29:05.881Z,1021.65
2019-02-05T09:30:05.881Z,1021.65
2019-02-05T09:31:05.867Z,1021.71
2019-02-05T09:32:05.841Z,1021.70
2019-02-05T09:33:05.832Z,1021.72
2019-02-05T09:34:05.814Z,1021.71
2019-02-05T09:35:05.842Z,1021.66
2019-02-05T09:36:05.796Z,1021.65
2019-02-05T09:37:05.798Z,1021.73
2019-02-05T09:38:05.771Z,1021.76
2019-02-05T09:39:05.764Z,1021.75
2019-02-05T09:40:05.757Z,1021.79
2019-02-05T09:41:05.774Z,1021.77
2019-02-05T09:42:05.732Z,1021.69
2019-02-05T09:43:05.720Z,1021.66
2019-02-05T09:44:05.711Z,1021.69
2019-02-05T09:45:05.695Z,1021.63
2019-02-05T09:46:05.776Z,1021.68
2019-02-05T09:47:05.680Z,1021.70
2019-02-05T09:48:05.668Z,1021.72
2019-02-05T09:49:05.652Z,1021.72
2019-02-05T09:50:05.640Z,1021.70
2019-02-05T09:51:05.654Z,1021.66
2019-02-05T09:52:05.626Z,1021.65
2019-02-05T09:53:05.618Z,1021.74
2019-02-05T09:54:05.695Z,1021.72
2019-02-05T09:55:05.598Z,1021.75
2019-02-05T09:56:05.603Z,1021.72
2019-02-05T09:57:05.581Z,1021.72
2019-02-05T09:58:05.624Z,1021.74
2019-02-05T09:59:05.569Z,1021.75
2019-02-05T10:00:05.558Z,1021.71
2019-02-05T10:01:05.591Z,1021.75
2019-02-05T10:02:05.532Z,1021.78
2019-02-05T10:03:05.522Z,1021.81
2019-02-05T10:04:05.497Z,1021.79
2019-02-05T10:05:05.486Z,1021.82
2019-02-05T10:06:05.519Z,1021.87
2019-02-05T10:07:05.467Z,1021.91
2019-02-05T10:08:05.461Z,1021.88
2019-02-05T10:09:05.440Z,1021.90
2019-02-05T10:10:05.449Z,1021.96
2019-02-05T10:11:05.442Z,1022.05
2019-02-05T10:12:05.423Z,1022.03
2019-02-05T10:13:05.391Z,1022.04
2019-02-05T10:14:05.385Z,1021.92
2019-02-05T10:15:05.390Z,1021.95
2019-02-05T10:16:05.398Z,1022.01
2019-02-05T10:17:05.371Z,1021.99
2019-02-05T10:18:05.342Z,1021.96
2019-02-05T10:19:05.342Z,1021.96
2019-02-05T10:20:05.327Z,1021.93
2019-02-05T10:21:05.329Z,1021.93
2019-02-05T10:22:05.327Z,1021.91
2019-02-05T10:23:05.281Z,1021.93
2019-02-05T10:24:05.277Z,1021.93
2019-02-05T10:25:05.261Z,1021.90
2019-02-05T10:26:05.253Z,1021.96
2019-02-05T10:27:05.279Z,1021.93
2019-02-05T10:28:05.231Z,1021.94
2019-02-05T10:29:05.210Z,1021.92
2019-02-05T10:30:05.215Z,1021.93
2019-02-05T10:31:05.203Z,1021.91
2019-02-05T10:32:05.200Z,1021.93
2019-02-05T10:33:05.175Z,1021.93
2019-02-05T10:34:05.160Z,1021.91
2019-02-05T10:35:05.155Z,1021.89
2019-02-05T10:36:05.137Z,1021.91
2019-02-05T10:37:05.139Z,1021.94
2019-02-05T10:38:05.109Z,1021.93
2019-02-05T10:39:05.106Z,1021.95
2019-02-05T10:40:05.083Z,1021.93
2019-02-05T10:41:05.084Z,1021.97
2019-02-05T10:42:05.086Z,1021.95
2019-02-05T10:43:05.063Z,1021.97
2019-02-05T10:44:05.040Z,1021.97
2019-02-05T10:45:05.493Z,1021.91
2019-02-05T10:46:05.018Z,1021.91
2019-02-05T10:47:05.055Z,1021.88
2019-02-05T10:48:05.005Z,1021.91
2019-02-05T10:49:04.994Z,1021.89
2019-02-05T10:50:04.986Z,1021.86
2019-02-05T10:51:05.007Z,1021.92
2019-02-05T10:52:05.000Z,1021.88
2019-02-05T10:53:04.949Z,1021.92
2019-02-05T10:54:04.962Z,1021.94
2019-02-05T10:55:04.929Z,1021.90
2019-02-05T10:56:04.920Z,1021.91
2019-02-05T10:57:04.931Z,1021.84
2019-02-05T10:58:04.894Z,1021.83
2019-02-05T10:59:04.884Z,1021.85
2019-02-05T11:00:09.064Z,1021.85
2019-02-05T11:01:04.861Z,1021.87
2019-02-05T11:02:04.877Z,1021.89
2019-02-05T11:03:04.857Z,1021.87
2019-02-05T11:04:04.859Z,1021.82
2019-02-05T11:05:05.250Z,1021.90
2019-02-05T11:06:04.833Z,1021.80
2019-02-05T11:07:04.832Z,1021.81
2019-02-05T11:08:04.844Z,1021.80
2019-02-05T11:09:04.775Z,1021.83
2019-02-05T11:10:04.764Z,1021.82
2019-02-05T11:11:04.764Z,1021.81
2019-02-05T11:12:04.736Z,1021.87
2019-02-05T11:13:04.734Z,1021.88
2019-02-05T11:15:05.877Z,1021.89
2019-02-05T11:16:04.689Z,1021.84
2019-02-05T11:17:04.679Z,1021.85
2019-02-05T11:18:04.698Z,1021.85
2019-02-05T11:19:04.695Z,1021.85
2019-02-05T11:20:04.665Z,1021.85
2019-02-05T11:21:04.625Z,1021.88
2019-02-05T11:23:05.776Z,1021.83
2019-02-05T11:24:04.601Z,1021.84
2019-02-05T11:25:04.587Z,1021.80
2019-02-05T11:26:04.571Z,1021.79
2019-02-05T11:27:04.558Z,1021.82
2019-02-05T11:28:04.573Z,1021.82
2019-02-05T11:29:04.545Z,1021.82
2019-02-05T11:30:04.571Z,1021.86
2019-02-05T11:31:04.517Z,1021.84
2019-02-05T11:32:04.497Z,1021.84
2019-02-05T11:33:04.508Z,1021.82
2019-02-05T11:34:04.500Z,1021.84
2019-02-05T11:35:04.465Z,1021.83
2019-02-05T11:36:04.464Z,1021.79
2019-02-05T11:37:04.446Z,1021.84
2019-02-05T11:38:04.531Z,1021.85
2019-02-05T11:39:04.437Z,1021.83
2019-02-05T11:40:04.410Z,1021.84
2019-02-05T11:41:04.411Z,1021.84
2019-02-05T11:42:04.719Z,1021.84
2019-02-05T11:43:04.424Z,1021.83
2019-02-05T11:44:04.383Z,1021.88
2019-02-05T11:45:04.408Z,1021.88
2019-02-05T11:46:04.387Z,1021.90
2019-02-05T11:47:04.355Z,1021.85
2019-02-05T11:48:04.501Z,1021.87
2019-02-05T11:49:04.306Z,1021.89
2019-02-05T11:50:04.309Z,1021.89
2019-02-05T11:51:04.310Z,1021.84
2019-02-05T11:52:04.355Z,1021.82
2019-02-05T11:53:04.290Z,1021.85
2019-02-05T11:54:04.281Z,1021.85
2019-02-05T11:55:04.249Z,1021.89
2019-02-05T11:56:04.273Z,1021.89
2019-02-05T11:57:04.249Z,1021.89
2019-02-05T11:58:04.253Z,1021.88
2019-02-05T11:59:04.220Z,1021.84
2019-02-05T12:00:04.198Z,1021.85
2019-02-05T12:01:04.192Z,1021.85
2019-02-05T12:02:04.186Z,1021.86
2019-02-05T12:03:04.190Z,1021.81
2019-02-05T12:04:04.155Z,1021.83
2019-02-05T12:05:04.145Z,1021.82
2019-02-05T12:06:04.129Z,1021.81
2019-02-05T12:07:04.116Z,1021.82